createdAt,value
2016-08-03T00:00:09.769Z,965.32
2016-08-03T00:01:09.774Z,965.34
2016-08-03T00:02:09.787Z,965.35
2016-08-03T00:03:09.794Z,965.35
2016-08-03T00:04:09.806Z,965.35
2016-08-03T00:05:09.811Z,965.32
2016-08-03T00:06:09.813Z,965.3
2016-08-03T00:07:09.824Z,965.3
2016-08-03T00:08:09.833Z,965.26
2016-08-03T00:09:09.841Z,965.3
2016-08-03T00:10:09.858Z,965.27
2016-08-03T00:11:09.856Z,965.28
2016-08-03T00:12:09.870Z,965.28
2016-08-03T00:13:09.877Z,965.27
2016-08-03T00:14:09.891Z,965.3
2016-08-03T00:15:09.897Z,965.28
2016-08-03T00:16:09.895Z,965.26
2016-08-03T00:17:09.907Z,965.28
2016-08-03T00:18:09.923Z,965.26
2016-08-03T00:19:09.925Z,965.26
2016-08-03T00:20:09.946Z,965.27
2016-08-03T00:21:09.940Z,965.27
2016-08-03T00:22:09.959Z,965.23
2016-08-03T00:23:09.957Z,965.25
2016-08-03T00:24:09.964Z,965.22
2016-08-03T00:25:09.971Z,965.22
2016-08-03T00:26:09.991Z,965.2
2016-08-03T00:27:09.996Z,965.15
2016-08-03T00:28:09.997Z,965.21
2016-08-03T00:29:10.015Z,965.13
2016-08-03T00:30:10.025Z,965.12
2016-08-03T00:31:10.026Z,965.15
2016-08-03T00:32:10.032Z,965.14
2016-08-03T00:33:10.049Z,965.15
2016-08-03T00:34:10.058Z,965.16
2016-08-03T00:35:10.062Z,965.17
2016-08-03T00:36:10.065Z,965.16
2016-08-03T00:37:10.083Z,965.17
2016-08-03T00:38:10.082Z,965.18
2016-08-03T00:39:10.098Z,965.18
2016-08-03T00:40:10.099Z,965.21
2016-08-03T00:41:10.109Z,965.16
2016-08-03T00:42:10.117Z,965.2
2016-08-03T00:43:10.124Z,965.18
2016-08-03T00:44:10.132Z,965.11
2016-08-03T00:45:10.144Z,965.11
2016-08-03T00:46:10.150Z,965.12
2016-08-03T00:47:10.169Z,965.09
2016-08-03T00:48:10.170Z,965.09
2016-08-03T00:49:10.182Z,965.06
2016-08-03T00:50:10.185Z,965.07
2016-08-03T00:51:10.199Z,965.06
2016-08-03T00:52:10.202Z,964.97
2016-08-03T00:53:10.220Z,965.01
2016-08-03T00:54:10.224Z,964.98
2016-08-03T00:55:10.224Z,964.96
2016-08-03T00:56:10.242Z,964.94
2016-08-03T00:57:10.250Z,964.95
2016-08-03T00:58:10.260Z,964.93
2016-08-03T00:59:10.266Z,964.96
2016-08-03T01:00:10.268Z,964.98
2016-08-03T01:01:10.289Z,965.01
2016-08-03T01:02:10.283Z,964.95
2016-08-03T01:03:10.295Z,964.98
2016-08-03T01:04:10.304Z,965
2016-08-03T01:05:10.315Z,965
2016-08-03T01:06:10.328Z,965
2016-08-03T01:07:10.329Z,965.03
2016-08-03T01:08:10.332Z,965.01
2016-08-03T01:09:10.342Z,965.04
2016-08-03T01:10:10.353Z,965.03
2016-08-03T01:11:10.361Z,965.06
2016-08-03T01:12:10.375Z,965.04
2016-08-03T01:13:10.375Z,964.99
2016-08-03T01:14:10.387Z,964.99
2016-08-03T01:15:10.393Z,964.97
2016-08-03T01:16:10.410Z,964.97
2016-08-03T01:17:10.419Z,964.98
2016-08-03T01:18:10.422Z,964.96
2016-08-03T01:19:10.437Z,964.99
2016-08-03T01:20:10.437Z,964.96
2016-08-03T01:21:10.450Z,964.91
2016-08-03T01:22:10.457Z,964.95
2016-08-03T01:23:10.459Z,964.9
2016-08-03T01:24:10.473Z,964.9
2016-08-03T01:25:10.485Z,964.9
2016-08-03T01:26:10.483Z,964.86
2016-08-03T01:27:10.491Z,964.87
2016-08-03T01:28:10.508Z,964.88
2016-08-03T01:29:10.509Z,964.89
2016-08-03T01:30:10.525Z,964.89
2016-08-03T01:31:10.530Z,964.88
2016-08-03T01:32:10.544Z,964.92
2016-08-03T01:33:10.540Z,964.87
2016-08-03T01:34:10.551Z,964.89
2016-08-03T01:35:10.566Z,964.87
2016-08-03T01:36:10.568Z,964.84
2016-08-03T01:37:10.577Z,964.79
2016-08-03T01:38:10.592Z,964.73
2016-08-03T01:39:10.595Z,964.77
2016-08-03T01:40:10.606Z,964.73
2016-08-03T01:41:10.610Z,964.69
2016-08-03T01:42:10.617Z,964.69
2016-08-03T01:43:10.624Z,964.7
2016-08-03T01:44:10.642Z,964.63
2016-08-03T01:45:10.655Z,964.65
2016-08-03T01:46:10.650Z,964.67
2016-08-03T01:47:10.663Z,964.67
2016-08-03T01:48:10.673Z,964.71
2016-08-03T01:49:10.674Z,964.7
2016-08-03T01:50:10.691Z,964.69
2016-08-03T01:51:10.690Z,964.64
2016-08-03T01:52:10.698Z,964.65
2016-08-03T01:53:10.709Z,964.7
2016-08-03T01:54:10.725Z,964.72
2016-08-03T01:55:10.724Z,964.7
2016-08-03T01:56:10.734Z,964.69
2016-08-03T01:57:10.751Z,964.72
2016-08-03T01:58:10.758Z,964.66
2016-08-03T01:59:10.756Z,964.66
2016-08-03T02:00:10.775Z,964.66
2016-08-03T02:01:10.774Z,964.65
2016-08-03T02:02:10.782Z,964.63
2016-08-03T02:03:10.791Z,964.62
2016-08-03T02:04:10.801Z,964.58
2016-08-03T02:05:10.812Z,964.6
2016-08-03T02:06:10.818Z,964.57
2016-08-03T02:07:10.832Z,964.53
2016-08-03T02:08:10.841Z,964.53
2016-08-03T02:09:10.853Z,964.5
2016-08-03T02:10:10.850Z,964.49
2016-08-03T02:11:10.867Z,964.47
2016-08-03T02:12:10.867Z,964.49
2016-08-03T02:13:10.882Z,964.47
2016-08-03T02:14:10.892Z,964.5
2016-08-03T02:15:10.902Z,964.51
2016-08-03T02:16:10.909Z,964.53
2016-08-03T02:17:10.909Z,964.51
2016-08-03T02:18:10.919Z,964.52
2016-08-03T02:19:10.933Z,964.5
2016-08-03T02:20:10.932Z,964.47
2016-08-03T02:21:10.943Z,964.47
2016-08-03T02:22:10.950Z,964.43
2016-08-03T02:23:10.968Z,964.41
2016-08-03T02:24:10.965Z,964.41
2016-08-03T02:25:10.985Z,964.41
2016-08-03T02:26:10.994Z,964.38
2016-08-03T02:27:10.995Z,964.42
2016-08-03T02:28:11.003Z,964.42
2016-08-03T02:29:11.007Z,964.4
2016-08-03T02:30:11.021Z,964.4
2016-08-03T02:31:11.024Z,964.44
2016-08-03T02:32:11.042Z,964.44
2016-08-03T02:33:11.050Z,964.44
2016-08-03T02:34:11.058Z,964.42
2016-08-03T02:35:11.066Z,964.42
2016-08-03T02:36:11.075Z,964.37
2016-08-03T02:37:11.074Z,964.37
2016-08-03T02:38:11.094Z,964.32
2016-08-03T02:39:11.101Z,964.33
2016-08-03T02:40:11.111Z,964.35
2016-08-03T02:41:11.118Z,964.36
2016-08-03T02:42:11.123Z,964.35
2016-08-03T02:43:11.134Z,964.36
2016-08-03T02:44:11.134Z,964.35
2016-08-03T02:45:11.142Z,964.36
2016-08-03T02:46:11.157Z,964.36
2016-08-03T02:47:11.164Z,964.34
2016-08-03T02:48:11.176Z,964.31
2016-08-03T02:49:11.174Z,964.31
2016-08-03T02:50:11.190Z,964.29
2016-08-03T02:51:11.203Z,964.32
2016-08-03T02:52:11.206Z,964.31
2016-08-03T02:53:11.217Z,964.3
2016-08-03T02:54:11.218Z,964.32
2016-08-03T02:55:11.231Z,964.35
2016-08-03T02:56:11.234Z,964.38
2016-08-03T02:57:11.248Z,964.38
2016-08-03T02:58:11.249Z,964.37
2016-08-03T02:59:11.264Z,964.4
2016-08-03T03:00:11.274Z,964.43
2016-08-03T03:01:11.275Z,964.4
2016-08-03T03:02:11.282Z,964.42
2016-08-03T03:03:11.293Z,964.42
2016-08-03T03:04:11.305Z,964.42
2016-08-03T03:05:11.310Z,964.38
2016-08-03T03:06:11.315Z,964.38
2016-08-03T03:07:11.333Z,964.39
2016-08-03T03:08:11.340Z,964.33
2016-08-03T03:09:11.340Z,964.36
2016-08-03T03:10:11.358Z,964.32
2016-08-03T03:11:11.367Z,964.35
2016-08-03T03:12:11.363Z,964.35
2016-08-03T03:13:11.381Z,964.37
2016-08-03T03:14:11.390Z,964.36
2016-08-03T03:15:11.399Z,964.37
2016-08-03T03:16:11.398Z,964.36
2016-08-03T03:17:11.414Z,964.37
2016-08-03T03:18:11.425Z,964.39
2016-08-03T03:19:11.423Z,964.39
2016-08-03T03:20:11.438Z,964.39
2016-08-03T03:21:11.448Z,964.38
2016-08-03T03:22:11.455Z,964.41
2016-08-03T03:23:11.457Z,964.36
2016-08-03T03:24:11.472Z,964.38
2016-08-03T03:25:11.481Z,964.39
2016-08-03T03:26:11.487Z,964.34
2016-08-03T03:27:11.489Z,964.35
2016-08-03T03:28:11.506Z,964.32
2016-08-03T03:29:11.514Z,964.36
2016-08-03T03:30:11.522Z,964.32
2016-08-03T03:31:11.531Z,964.35
2016-08-03T03:32:11.538Z,964.34
2016-08-03T03:33:11.540Z,964.33
2016-08-03T03:34:11.549Z,964.34
2016-08-03T03:35:11.556Z,964.32
2016-08-03T03:36:11.570Z,964.3
2016-08-03T03:37:11.572Z,964.34
2016-08-03T03:38:11.580Z,964.36
2016-08-03T03:39:11.593Z,964.37
2016-08-03T03:40:11.606Z,964.32
2016-08-03T03:41:11.606Z,964.33
2016-08-03T03:42:11.614Z,964.32
2016-08-03T03:43:11.623Z,964.33
2016-08-03T03:44:11.640Z,964.29
2016-08-03T03:45:11.643Z,964.34
2016-08-03T03:46:11.646Z,964.33
2016-08-03T03:47:11.665Z,964.3
2016-08-03T03:48:11.670Z,964.29
2016-08-03T03:49:11.672Z,964.26
2016-08-03T03:50:11.687Z,964.26
2016-08-03T03:51:11.691Z,964.29
2016-08-03T03:52:11.698Z,964.29
2016-08-03T03:53:11.712Z,964.28
2016-08-03T03:54:11.715Z,964.25
2016-08-03T03:55:11.723Z,964.28
2016-08-03T03:56:11.737Z,964.26
2016-08-03T03:57:11.749Z,964.31
2016-08-03T03:58:11.756Z,964.29
2016-08-03T03:59:11.756Z,964.25
2016-08-03T04:00:11.769Z,964.26
2016-08-03T04:01:11.771Z,964.28
2016-08-03T04:02:11.783Z,964.21
2016-08-03T04:03:11.797Z,964.18
2016-08-03T04:04:11.802Z,964.24
2016-08-03T04:05:11.813Z,964.22
2016-08-03T04:06:11.823Z,964.25
2016-08-03T04:07:11.824Z,964.2
2016-08-03T04:08:11.831Z,964.2
2016-08-03T04:09:11.852Z,964.15
2016-08-03T04:10:11.846Z,964.17
2016-08-03T04:11:11.855Z,964.2
2016-08-03T04:12:11.881Z,964.12
2016-08-03T04:13:11.881Z,964.15
2016-08-03T04:14:11.886Z,964.13
2016-08-03T04:15:11.889Z,964.15
2016-08-03T04:16:11.898Z,964.17
2016-08-03T04:17:11.911Z,964.2
2016-08-03T04:18:11.914Z,964.18
2016-08-03T04:19:11.922Z,964.18
2016-08-03T04:20:11.936Z,964.21
2016-08-03T04:21:11.945Z,964.17
2016-08-03T04:22:11.949Z,964.18
2016-08-03T04:23:11.964Z,964.16
2016-08-03T04:24:11.964Z,964.17
2016-08-03T04:25:11.986Z,964.18
2016-08-03T04:26:11.980Z,964.19
2016-08-03T04:27:11.987Z,964.15
2016-08-03T04:28:11.994Z,964.2
2016-08-03T04:29:12.012Z,964.2
2016-08-03T04:30:12.015Z,964.18
2016-08-03T04:31:12.024Z,964.16
2016-08-03T04:32:12.031Z,964.19
2016-08-03T04:33:12.046Z,964.17
2016-08-03T04:34:12.060Z,964.18
2016-08-03T04:35:12.062Z,964.15
2016-08-03T04:36:12.064Z,964.17
2016-08-03T04:37:12.072Z,964.18
2016-08-03T04:38:12.086Z,964.13
2016-08-03T04:39:12.086Z,964.17
2016-08-03T04:40:12.096Z,964.11
2016-08-03T04:41:12.112Z,964.14
2016-08-03T04:42:12.114Z,964.14
2016-08-03T04:43:12.129Z,964.11
2016-08-03T04:44:12.131Z,964.12
2016-08-03T04:45:12.146Z,964.1
2016-08-03T04:46:12.154Z,964.15
2016-08-03T04:47:12.155Z,964.13
2016-08-03T04:48:12.162Z,964.12
2016-08-03T04:49:12.180Z,964.14
2016-08-03T04:50:12.186Z,964.12
2016-08-03T04:51:12.195Z,964.16
2016-08-03T04:52:12.207Z,964.12
2016-08-03T04:53:12.212Z,964.11
2016-08-03T04:54:12.220Z,964.12
2016-08-03T04:55:12.228Z,964.13
2016-08-03T04:56:12.432Z,964.14
2016-08-03T04:57:12.240Z,964.11
2016-08-03T04:58:12.253Z,964.13
2016-08-03T04:59:12.258Z,964.1
2016-08-03T05:00:12.269Z,964.12
2016-08-03T05:01:12.272Z,964.09
2016-08-03T05:02:12.282Z,964.06
2016-08-03T05:03:12.289Z,964.11
2016-08-03T05:04:12.303Z,964.06
2016-08-03T05:05:12.305Z,964.06
2016-08-03T05:06:12.312Z,964.05
2016-08-03T05:07:12.330Z,964.08
2016-08-03T05:08:12.338Z,964.08
2016-08-03T05:09:12.346Z,964.08
2016-08-03T05:10:12.347Z,964.04
2016-08-03T05:11:12.355Z,964.06
2016-08-03T05:12:12.364Z,964.01
2016-08-03T05:13:12.372Z,964.02
2016-08-03T05:14:12.387Z,964.01
2016-08-03T05:15:12.387Z,963.98
2016-08-03T05:16:12.397Z,963.94
2016-08-03T05:17:12.401Z,963.92
2016-08-03T05:18:12.412Z,963.92
2016-08-03T05:19:12.422Z,963.96
2016-08-03T05:20:12.431Z,963.96
2016-08-03T05:21:12.439Z,963.94
2016-08-03T05:22:12.448Z,963.93
2016-08-03T05:23:12.458Z,963.94
2016-08-03T05:24:12.462Z,963.94
2016-08-03T05:25:12.472Z,963.96
2016-08-03T05:26:12.478Z,963.95
2016-08-03T05:27:12.494Z,963.96
2016-08-03T05:28:12.499Z,963.95
2016-08-03T05:29:12.505Z,964
2016-08-03T05:30:12.521Z,963.92
2016-08-03T05:31:12.527Z,963.95
2016-08-03T05:32:12.534Z,963.95
2016-08-03T05:33:12.537Z,963.97
2016-08-03T05:34:12.544Z,963.94
2016-08-03T05:35:12.552Z,963.91
2016-08-03T05:36:12.562Z,963.94
2016-08-03T05:37:12.579Z,963.93
2016-08-03T05:38:12.585Z,963.94
2016-08-03T05:39:12.588Z,963.93
2016-08-03T05:40:12.603Z,963.95
2016-08-03T05:41:12.610Z,963.95
2016-08-03T05:42:12.610Z,963.91
2016-08-03T05:43:12.620Z,963.94
2016-08-03T05:44:12.628Z,963.96
2016-08-03T05:45:12.642Z,963.96
2016-08-03T05:46:12.649Z,963.97
2016-08-03T05:47:12.654Z,963.98
2016-08-03T05:48:12.669Z,963.92
2016-08-03T05:49:12.668Z,963.92
2016-08-03T05:50:12.686Z,963.91
2016-08-03T05:51:12.693Z,963.94
2016-08-03T05:52:12.695Z,963.9
2016-08-03T05:53:12.702Z,963.93
2016-08-03T05:54:12.712Z,963.89
2016-08-03T05:55:12.720Z,963.86
2016-08-03T05:56:12.729Z,963.87
2016-08-03T05:57:12.743Z,963.84
2016-08-03T05:58:12.750Z,963.81
2016-08-03T05:59:12.761Z,963.82
2016-08-03T06:01:12.770Z,963.79
2016-08-03T06:02:12.787Z,963.82
2016-08-03T06:03:12.791Z,963.77
2016-08-03T06:04:12.793Z,963.75
2016-08-03T06:05:12.810Z,963.73
2016-08-03T06:06:12.813Z,963.72
2016-08-03T06:07:12.841Z,963.68
2016-08-03T06:08:12.827Z,963.68
2016-08-03T06:09:12.848Z,963.65
2016-08-03T06:10:12.845Z,963.68
2016-08-03T06:11:12.861Z,963.67
2016-08-03T06:12:12.860Z,963.66
2016-08-03T06:13:12.880Z,963.6
2016-08-03T06:14:12.884Z,963.64
2016-08-03T06:16:12.903Z,963.58
2016-08-03T06:17:12.909Z,963.56
2016-08-03T06:18:12.910Z,963.59
2016-08-03T06:19:12.928Z,963.56
2016-08-03T06:20:12.937Z,963.5
2016-08-03T06:21:12.943Z,963.55
2016-08-03T06:22:12.946Z,963.53
2016-08-03T06:23:12.959Z,963.53
2016-08-03T06:24:12.968Z,963.56
2016-08-03T06:25:12.978Z,963.54
2016-08-03T06:26:12.980Z,963.52
2016-08-03T06:27:12.992Z,963.49
2016-08-03T06:28:13.005Z,963.52
2016-08-03T06:29:13.000Z,963.47
2016-08-03T06:30:13.016Z,963.49
2016-08-03T06:31:13.027Z,963.45
2016-08-03T06:32:13.035Z,963.45
2016-08-03T06:33:13.043Z,963.39
2016-08-03T06:34:13.052Z,963.46
2016-08-03T06:35:13.061Z,963.43
2016-08-03T06:36:13.062Z,963.43
2016-08-03T06:37:13.069Z,963.44
2016-08-03T06:38:13.085Z,963.39
2016-08-03T06:39:13.092Z,963.4
2016-08-03T06:40:13.101Z,963.4
2016-08-03T06:41:13.101Z,963.39
2016-08-03T06:42:13.129Z,963.42
2016-08-03T06:43:13.121Z,963.4
2016-08-03T06:44:13.136Z,963.45
2016-08-03T06:45:13.136Z,963.45
2016-08-03T06:46:13.145Z,963.47
2016-08-03T06:47:13.159Z,963.46
2016-08-03T06:48:13.163Z,963.5
2016-08-03T06:49:13.168Z,963.47
2016-08-03T06:50:13.179Z,963.48
2016-08-03T06:51:13.193Z,963.48
2016-08-03T06:52:13.196Z,963.46
2016-08-03T06:53:13.209Z,963.51
2016-08-03T06:54:13.219Z,963.47
2016-08-03T06:55:13.219Z,963.49
2016-08-03T06:56:13.232Z,963.45
2016-08-03T06:57:13.243Z,963.45
2016-08-03T06:58:13.242Z,963.45
2016-08-03T06:59:13.260Z,963.51
2016-08-03T07:00:13.269Z,963.43
2016-08-03T07:01:13.272Z,963.42
2016-08-03T07:02:13.278Z,963.4
2016-08-03T07:03:13.283Z,963.35
2016-08-03T07:04:13.301Z,963.38
2016-08-03T07:05:13.310Z,963.34
2016-08-03T07:06:13.318Z,963.29
2016-08-03T07:07:13.329Z,963.33
2016-08-03T07:08:13.336Z,963.35
2016-08-03T07:09:13.344Z,963.32
2016-08-03T07:10:13.344Z,963.35
2016-08-03T07:11:13.360Z,963.31
2016-08-03T07:12:13.377Z,963.29
2016-08-03T07:13:13.369Z,963.25
2016-08-03T07:14:13.385Z,963.23
2016-08-03T07:15:13.394Z,963.24
2016-08-03T07:16:13.396Z,963.21
2016-08-03T07:17:13.410Z,963.22
2016-08-03T07:18:13.417Z,963.21
2016-08-03T07:19:13.427Z,963.24
2016-08-03T07:20:13.433Z,963.24
2016-08-03T07:21:13.447Z,963.25
2016-08-03T07:22:13.452Z,963.2
2016-08-03T07:23:13.454Z,963.21
2016-08-03T07:24:13.469Z,963.22
2016-08-03T07:25:13.478Z,963.2
2016-08-03T07:26:13.476Z,963.17
2016-08-03T07:27:13.483Z,963.18
2016-08-03T07:28:13.501Z,963.18
2016-08-03T07:29:13.510Z,963.18
2016-08-03T07:30:13.519Z,963.23
2016-08-03T07:31:13.523Z,963.22
2016-08-03T07:32:13.534Z,963.18
2016-08-03T07:33:13.534Z,963.21
2016-08-03T07:34:13.550Z,963.22
2016-08-03T07:35:13.561Z,963.2
2016-08-03T07:36:13.563Z,963.2
2016-08-03T07:37:13.577Z,963.21
2016-08-03T07:38:13.580Z,963.17
2016-08-03T07:39:13.582Z,963.2
2016-08-03T07:40:13.598Z,963.11
2016-08-03T07:41:13.609Z,963.16
2016-08-03T07:42:13.623Z,963.14
2016-08-03T07:43:13.625Z,963.12
2016-08-03T07:44:13.625Z,963.1
2016-08-03T07:45:13.639Z,963.13
2016-08-03T07:46:13.650Z,963.14
2016-08-03T07:47:13.659Z,963.14
2016-08-03T07:48:13.661Z,963.09
2016-08-03T07:49:13.666Z,963.1
2016-08-03T07:50:13.675Z,963.08
2016-08-03T07:51:13.683Z,963.05
2016-08-03T07:52:13.694Z,963.05
2016-08-03T07:53:13.703Z,963
2016-08-03T07:54:13.708Z,963.03
2016-08-03T07:55:13.716Z,962.97
2016-08-03T07:56:13.734Z,962.95
2016-08-03T07:57:13.740Z,962.95
2016-08-03T07:58:13.741Z,963
2016-08-03T07:59:13.754Z,962.95
2016-08-03T08:00:13.767Z,962.96
2016-08-03T08:01:13.764Z,962.96
2016-08-03T08:02:13.774Z,962.93
2016-08-03T08:03:13.779Z,962.96
2016-08-03T08:04:13.787Z,962.97
2016-08-03T08:05:13.797Z,962.95
2016-08-03T08:06:13.812Z,962.98
2016-08-03T08:07:13.821Z,962.99
2016-08-03T08:08:13.822Z,962.99
2016-08-03T08:09:13.837Z,962.98
2016-08-03T08:10:13.839Z,962.95
2016-08-03T08:11:13.845Z,962.97
2016-08-03T08:12:13.865Z,962.99
2016-08-03T08:13:13.869Z,962.98
2016-08-03T08:14:13.871Z,962.96
2016-08-03T08:15:13.881Z,962.95
2016-08-03T08:16:13.891Z,962.99
2016-08-03T08:17:13.894Z,962.94
2016-08-03T08:18:13.908Z,962.91
2016-08-03T08:19:13.916Z,962.91
2016-08-03T08:20:13.919Z,962.88
2016-08-03T08:21:13.935Z,962.84
2016-08-03T08:22:13.941Z,962.87
2016-08-03T08:23:13.951Z,962.88
2016-08-03T08:24:13.962Z,962.82
2016-08-03T08:25:13.967Z,962.85
2016-08-03T08:26:13.976Z,962.85
2016-08-03T08:27:13.983Z,962.81
2016-08-03T08:28:13.987Z,962.82
2016-08-03T08:29:13.993Z,962.72
2016-08-03T08:30:14.010Z,962.73
2016-08-03T08:31:14.019Z,962.72
2016-08-03T08:32:14.033Z,962.73
2016-08-03T08:33:14.036Z,962.7
2016-08-03T08:34:14.042Z,962.7
2016-08-03T08:35:14.052Z,962.72
2016-08-03T08:36:14.051Z,962.74
2016-08-03T08:37:14.065Z,962.74
2016-08-03T08:38:14.073Z,962.69
2016-08-03T08:39:14.075Z,962.7
2016-08-03T08:40:14.086Z,962.69
2016-08-03T08:41:14.094Z,962.7
2016-08-03T08:42:14.109Z,962.69
2016-08-03T08:43:14.109Z,962.72
2016-08-03T08:44:14.122Z,962.65
2016-08-03T08:45:14.134Z,962.69
2016-08-03T08:46:14.142Z,962.73
2016-08-03T08:47:14.148Z,962.73
2016-08-03T08:48:14.151Z,962.73
2016-08-03T08:49:14.168Z,962.73
2016-08-03T08:50:14.170Z,962.71
2016-08-03T08:51:14.181Z,962.73
2016-08-03T08:52:14.185Z,962.74
2016-08-03T08:53:14.200Z,962.72
2016-08-03T08:54:14.208Z,962.75
2016-08-03T08:55:14.211Z,962.78
2016-08-03T08:56:14.218Z,962.79
2016-08-03T08:57:14.232Z,962.75
2016-08-03T08:58:14.244Z,962.78
2016-08-03T08:59:14.252Z,962.77
2016-08-03T09:00:14.255Z,962.72
2016-08-03T09:01:14.259Z,962.75
2016-08-03T09:02:14.274Z,962.75
2016-08-03T09:03:14.285Z,962.73
2016-08-03T09:04:14.298Z,962.76
2016-08-03T09:05:14.302Z,962.72
2016-08-03T09:06:14.311Z,962.7
2016-08-03T09:07:14.317Z,962.68
2016-08-03T09:08:14.329Z,962.68
2016-08-03T09:09:14.341Z,962.68
2016-08-03T09:10:14.344Z,962.73
2016-08-03T09:11:14.346Z,962.71
2016-08-03T09:12:14.353Z,962.69
2016-08-03T09:13:14.362Z,962.74
2016-08-03T09:14:14.375Z,962.66
2016-08-03T09:15:14.381Z,962.59
2016-08-03T09:16:14.383Z,962.63
2016-08-03T09:17:14.397Z,962.57
2016-08-03T09:18:14.404Z,962.57
2016-08-03T09:19:14.411Z,962.59
2016-08-03T09:20:14.417Z,962.61
2016-08-03T09:21:14.419Z,962.57
2016-08-03T09:22:14.428Z,962.59
2016-08-03T09:23:14.434Z,962.56
2016-08-03T09:24:14.447Z,962.57
2016-08-03T09:25:14.450Z,962.52
2016-08-03T09:26:14.464Z,962.54
2016-08-03T09:27:14.463Z,962.53
2016-08-03T09:28:14.477Z,962.51
2016-08-03T09:29:14.486Z,962.51
2016-08-03T09:30:14.495Z,962.53
2016-08-03T09:31:14.494Z,962.45
2016-08-03T09:32:14.499Z,962.51
2016-08-03T09:33:14.518Z,962.48
2016-08-03T09:34:14.519Z,962.53
2016-08-03T09:35:14.532Z,962.46
2016-08-03T09:36:14.551Z,962.57
2016-08-03T09:37:14.548Z,962.54
2016-08-03T09:38:14.555Z,962.53
2016-08-03T09:39:14.558Z,962.48
2016-08-03T09:40:14.570Z,962.45
2016-08-03T09:41:14.571Z,962.4
2016-08-03T09:42:14.590Z,962.43
2016-08-03T09:43:14.597Z,962.38
2016-08-03T09:44:14.596Z,962.39
2016-08-03T09:45:14.606Z,962.35
2016-08-03T09:46:14.611Z,962.4
2016-08-03T09:47:14.621Z,962.35
2016-08-03T09:48:14.635Z,962.35
2016-08-03T09:49:14.636Z,962.34
2016-08-03T09:50:14.650Z,962.37
2016-08-03T09:51:14.654Z,962.36
2016-08-03T09:52:14.668Z,962.35
2016-08-03T09:53:14.679Z,962.35
2016-08-03T09:54:14.687Z,962.4
2016-08-03T09:55:14.696Z,962.4
2016-08-03T09:56:14.699Z,962.41
2016-08-03T09:57:14.703Z,962.39
2016-08-03T09:58:14.726Z,962.33
2016-08-03T09:59:14.721Z,962.33
2016-08-03T10:00:14.735Z,962.38
2016-08-03T10:01:14.739Z,962.41
2016-08-03T10:02:14.743Z,962.39
2016-08-03T10:03:14.750Z,962.39
2016-08-03T10:04:14.760Z,962.46
2016-08-03T10:05:14.775Z,962.45
2016-08-03T10:06:14.782Z,962.4
2016-08-03T10:07:14.790Z,962.36
2016-08-03T10:08:14.801Z,962.38
2016-08-03T10:09:14.809Z,962.32
2016-08-03T10:10:14.811Z,962.35
2016-08-03T10:11:14.817Z,962.33
2016-08-03T10:12:14.826Z,962.4
2016-08-03T10:13:14.841Z,962.37
2016-08-03T10:14:14.849Z,962.29
2016-08-03T10:15:14.859Z,962.31
2016-08-03T10:17:14.874Z,962.3
2016-08-03T10:18:14.888Z,962.27
2016-08-03T10:19:14.884Z,962.26
2016-08-03T10:20:14.913Z,962.23
2016-08-03T10:21:14.910Z,962.24
2016-08-03T10:22:14.919Z,962.21
2016-08-03T10:23:14.916Z,962.21
2016-08-03T10:24:14.925Z,962.2
2016-08-03T10:25:14.933Z,962.22
2016-08-03T10:26:14.941Z,962.22
2016-08-03T10:27:14.958Z,962.21
2016-08-03T10:28:14.967Z,962.12
2016-08-03T10:29:14.967Z,962.11
2016-08-03T10:30:14.974Z,962.15
2016-08-03T10:32:14.997Z,962.15
2016-08-03T10:33:15.007Z,962.18
2016-08-03T10:34:15.012Z,962.17
2016-08-03T10:35:15.023Z,962.11
2016-08-03T10:36:15.034Z,962.1
2016-08-03T10:37:15.030Z,962.06
2016-08-03T10:38:15.046Z,962.08
2016-08-03T10:39:15.056Z,962.08
2016-08-03T10:40:15.055Z,962.08
2016-08-03T10:41:15.063Z,962.02
2016-08-03T10:42:15.075Z,962.08
2016-08-03T10:43:15.083Z,962.07
2016-08-03T10:44:15.098Z,962.04
2016-08-03T10:45:15.108Z,962.02
2016-08-03T10:46:15.107Z,962
2016-08-03T10:47:15.116Z,961.98
2016-08-03T10:48:15.128Z,961.97
2016-08-03T10:49:15.136Z,961.9
2016-08-03T10:50:15.140Z,961.92
2016-08-03T10:51:15.149Z,961.88
2016-08-03T10:52:15.165Z,961.86
2016-08-03T10:53:15.174Z,961.95
2016-08-03T10:54:15.183Z,961.91
2016-08-03T10:55:15.185Z,961.88
2016-08-03T10:56:15.195Z,961.88
2016-08-03T10:57:15.201Z,961.85
2016-08-03T10:58:15.219Z,961.83
2016-08-03T10:59:15.225Z,961.84
2016-08-03T11:00:15.230Z,961.85
2016-08-03T11:02:15.246Z,961.82
2016-08-03T11:03:15.254Z,961.79
2016-08-03T11:04:15.268Z,961.78
2016-08-03T11:05:15.285Z,961.79
2016-08-03T11:06:15.287Z,961.76
2016-08-03T11:07:15.295Z,961.77
2016-08-03T11:08:15.304Z,961.76
2016-08-03T11:09:15.313Z,961.75
2016-08-03T11:10:15.325Z,961.74
2016-08-03T11:11:15.323Z,961.76
2016-08-03T11:12:15.333Z,961.72
2016-08-03T11:13:15.341Z,961.71
2016-08-03T11:14:15.349Z,961.7
2016-08-03T11:15:15.356Z,961.72
2016-08-03T11:16:15.368Z,961.69
2016-08-03T11:17:15.377Z,961.7
2016-08-03T11:18:15.387Z,961.69
2016-08-03T11:19:15.394Z,961.64
2016-08-03T11:20:15.411Z,961.64
2016-08-03T11:21:15.420Z,961.65
2016-08-03T11:22:15.429Z,961.66
2016-08-03T11:23:15.439Z,961.62
2016-08-03T11:24:15.442Z,961.59
2016-08-03T11:25:15.447Z,961.65
2016-08-03T11:26:15.468Z,961.6
2016-08-03T11:27:15.467Z,961.61
2016-08-03T11:28:15.480Z,961.63
2016-08-03T11:29:15.488Z,961.6
2016-08-03T11:30:15.504Z,961.54
2016-08-03T11:31:15.514Z,961.57
2016-08-03T11:32:15.523Z,961.59
2016-08-03T11:33:15.527Z,961.56
2016-08-03T11:34:15.537Z,961.55
2016-08-03T11:35:15.544Z,961.57
2016-08-03T11:36:15.555Z,961.56
2016-08-03T11:37:15.571Z,961.48
2016-08-03T11:38:15.571Z,961.56
2016-08-03T11:39:15.590Z,961.55
2016-08-03T11:40:15.592Z,961.59
2016-08-03T11:41:15.608Z,961.51
2016-08-03T11:42:15.609Z,961.5
2016-08-03T11:43:15.620Z,961.54
2016-08-03T11:44:15.635Z,961.53
2016-08-03T11:45:15.648Z,961.56
2016-08-03T11:46:15.656Z,961.54
2016-08-03T11:47:15.668Z,961.52
2016-08-03T11:48:15.675Z,961.44
2016-08-03T11:49:15.678Z,961.47
2016-08-03T11:50:15.689Z,961.46
2016-08-03T11:51:15.696Z,961.45
2016-08-03T11:52:15.705Z,961.46
2016-08-03T11:53:15.719Z,961.46
2016-08-03T11:54:15.729Z,961.47
2016-08-03T11:55:15.735Z,961.46
2016-08-03T11:56:15.746Z,961.4
2016-08-03T11:57:15.753Z,961.37
2016-08-03T11:58:15.774Z,961.34
2016-08-03T11:59:15.782Z,961.44
2016-08-03T12:00:15.793Z,961.51
2016-08-03T12:01:15.794Z,961.42
2016-08-03T12:02:15.800Z,961.38
2016-08-03T12:03:15.820Z,961.37
2016-08-03T12:04:15.824Z,961.35
2016-08-03T12:05:15.841Z,961.35
2016-08-03T12:06:15.851Z,961.34
2016-08-03T12:07:15.858Z,961.36
2016-08-03T12:08:15.864Z,961.35
2016-08-03T12:09:15.871Z,961.37
2016-08-03T12:10:15.881Z,961.35
2016-08-03T12:11:15.891Z,961.4
2016-08-03T12:12:15.907Z,961.37
2016-08-03T12:13:15.911Z,961.37
2016-08-03T12:14:15.921Z,961.35
2016-08-03T12:15:15.938Z,961.38
2016-08-03T12:16:15.946Z,961.42
2016-08-03T12:17:15.950Z,961.39
2016-08-03T12:18:15.964Z,961.37
2016-08-03T12:19:15.971Z,961.42
2016-08-03T12:20:15.987Z,961.42
2016-08-03T12:21:15.988Z,961.4
2016-08-03T12:22:16.015Z,961.36
2016-08-03T12:23:16.011Z,961.34
2016-08-03T12:24:16.029Z,961.37
2016-08-03T12:25:16.036Z,961.34
2016-08-03T12:26:16.048Z,961.28
2016-08-03T12:27:16.046Z,961.19
2016-08-03T12:28:16.067Z,961.26
2016-08-03T12:29:16.077Z,961.28
2016-08-03T12:30:16.087Z,961.34
2016-08-03T12:31:16.107Z,961.31
2016-08-03T12:32:16.118Z,961.29
2016-08-03T12:33:16.116Z,961.31
2016-08-03T12:34:16.116Z,961.29
2016-08-03T12:35:16.134Z,961.34
2016-08-03T12:36:16.139Z,961.33